createdAt,value
2022-10-08T00:00:05.238Z,11.70
2022-10-08T00:03:06.481Z,10.30
2022-10-08T00:06:12.226Z,10.05
2022-10-08T00:09:13.506Z,8.30
2022-10-08T00:12:14.874Z,10.63
2022-10-08T00:15:16.130Z,13.73
2022-10-08T00:18:17.626Z,9.68
2022-10-08T00:21:20.640Z,7.95
2022-10-08T00:24:21.911Z,9.13
2022-10-08T00:27:26.352Z,9.35
2022-10-08T00:30:27.617Z,9.88
2022-10-08T00:33:28.840Z,10.38
2022-10-08T00:36:34.395Z,10.10
2022-10-08T00:39:35.753Z,11.50
2022-10-08T00:42:38.309Z,8.75
2022-10-08T00:45:39.675Z,12.93
2022-10-08T00:48:40.963Z,10.45
2022-10-08T00:51:46.213Z,9.65
2022-10-08T00:54:50.147Z,10.50
2022-10-08T00:57:52.303Z,9.25
2022-10-08T01:00:53.837Z,8.32
2022-10-08T01:03:55.948Z,9.55
2022-10-08T01:07:05.412Z,8.68
2022-10-08T01:10:12.879Z,6.80
2022-10-08T01:13:34.975Z,10.05
2022-10-08T01:16:42.665Z,9.15
2022-10-08T01:20:04.747Z,8.00
2022-10-08T01:23:24.830Z,9.80
2022-10-08T01:26:36.265Z,8.93
2022-10-08T01:29:41.880Z,7.72
2022-10-08T01:32:51.175Z,8.85
2022-10-08T01:35:56.202Z,8.68
2022-10-08T01:39:01.736Z,9.90
2022-10-08T01:42:04.189Z,7.32
2022-10-08T01:45:09.381Z,8.80
2022-10-08T01:48:16.312Z,8.00
2022-10-08T01:51:20.415Z,9.60
2022-10-08T01:54:22.418Z,9.70
2022-10-08T01:57:23.991Z,9.23
2022-10-08T02:00:25.274Z,6.03
2022-10-08T02:03:26.529Z,8.68
2022-10-08T02:06:28.587Z,7.20
2022-10-08T02:09:31.219Z,8.65
2022-10-08T02:12:32.473Z,7.55
2022-10-08T02:15:54.788Z,7.40
2022-10-08T02:19:04.663Z,8.20
2022-10-08T02:22:07.135Z,6.75
2022-10-08T02:25:21.590Z,12.48
2022-10-08T02:28:38.852Z,7.50
2022-10-08T02:31:54.702Z,7.35
2022-10-08T02:34:58.059Z,8.35
2022-10-08T02:38:01.188Z,7.32
2022-10-08T02:41:03.882Z,8.18
2022-10-08T02:44:07.064Z,8.85
2022-10-08T02:47:10.617Z,7.78
2022-10-08T02:50:12.915Z,6.90
2022-10-08T02:53:15.955Z,7.63
2022-10-08T02:56:27.514Z,8.60
2022-10-08T02:59:28.777Z,7.70
2022-10-08T03:02:35.698Z,7.32
2022-10-08T03:05:38.173Z,8.55
2022-10-08T03:08:41.270Z,6.63
2022-10-08T03:11:42.791Z,8.43
2022-10-08T03:14:48.191Z,8.20
2022-10-08T03:17:49.435Z,8.98
2022-10-08T03:20:51.822Z,9.82
2022-10-08T03:23:53.069Z,8.13
2022-10-08T03:26:54.618Z,7.25
2022-10-08T03:29:58.807Z,7.28
2022-10-08T03:33:00.037Z,6.05
2022-10-08T03:36:01.436Z,7.78
2022-10-08T03:39:02.789Z,7.15
2022-10-08T03:42:04.480Z,9.63
2022-10-08T03:45:05.988Z,9.52
2022-10-08T03:48:07.204Z,7.57
2022-10-08T03:51:10.799Z,7.20
2022-10-08T03:54:12.048Z,10.35
2022-10-08T03:57:13.298Z,8.40
2022-10-08T04:00:14.619Z,6.25
2022-10-08T04:03:15.867Z,5.90
2022-10-08T04:06:17.576Z,6.25
2022-10-08T04:09:18.801Z,6.07
2022-10-08T04:12:20.049Z,5.75
2022-10-08T04:15:21.297Z,7.22
2022-10-08T04:18:22.718Z,9.60
2022-10-08T04:21:24.002Z,6.05
2022-10-08T04:24:25.256Z,7.07
2022-10-08T04:27:26.520Z,8.27
2022-10-08T04:30:27.824Z,5.90
2022-10-08T04:33:29.814Z,6.90
2022-10-08T04:36:31.050Z,6.78
2022-10-08T04:39:32.322Z,8.40
2022-10-08T04:42:33.617Z,7.55
2022-10-08T04:45:34.885Z,7.07
2022-10-08T04:48:36.533Z,8.38
2022-10-08T04:51:37.757Z,8.98
2022-10-08T04:54:39.189Z,6.43
2022-10-08T04:57:40.505Z,7.65
2022-10-08T05:00:41.745Z,6.35
2022-10-08T05:03:44.394Z,5.75
2022-10-08T05:06:45.628Z,7.07
2022-10-08T05:09:46.886Z,6.95
2022-10-08T05:12:48.672Z,5.80
2022-10-08T05:15:50.339Z,7.35
2022-10-08T05:18:52.165Z,6.22
2022-10-08T05:21:53.435Z,6.13
2022-10-08T05:24:54.731Z,6.15
2022-10-08T05:27:56.199Z,5.95
2022-10-08T05:31:00.926Z,6.35
2022-10-08T05:34:02.235Z,8.80
2022-10-08T05:37:03.783Z,5.68
2022-10-08T05:40:05.188Z,7.72
2022-10-08T05:43:06.454Z,5.75
2022-10-08T05:46:07.809Z,7.15
2022-10-08T05:49:12.973Z,6.57
2022-10-08T05:52:14.272Z,6.75
2022-10-08T05:55:15.651Z,6.22
2022-10-08T05:58:16.880Z,8.60
2022-10-08T06:01:22.278Z,6.75
2022-10-08T06:04:23.648Z,8.65
2022-10-08T06:07:24.928Z,7.95
2022-10-08T06:10:26.241Z,8.13
2022-10-08T06:13:27.603Z,15.63
2022-10-08T06:16:29.355Z,8.27
2022-10-08T06:19:31.002Z,8.75
2022-10-08T06:22:32.220Z,13.63
2022-10-08T06:25:35.870Z,8.10
2022-10-08T06:28:38.029Z,9.25
2022-10-08T06:31:39.363Z,9.15
2022-10-08T06:34:41.974Z,6.57
2022-10-08T06:37:43.216Z,8.70
2022-10-08T06:40:44.842Z,8.18
2022-10-08T06:43:46.256Z,10.15
2022-10-08T06:46:47.584Z,8.82
2022-10-08T06:49:48.894Z,12.73
2022-10-08T06:52:50.364Z,9.18
2022-10-08T06:55:55.746Z,9.05
2022-10-08T06:58:56.982Z,8.07
2022-10-08T07:01:58.269Z,10.18
2022-10-08T07:04:59.574Z,12.75
2022-10-08T07:08:01.033Z,11.73
2022-10-08T07:11:05.163Z,11.38
2022-10-08T07:14:06.395Z,10.80
2022-10-08T07:17:07.646Z,11.55
2022-10-08T07:20:09.152Z,7.63
2022-10-08T07:23:10.451Z,7.80
2022-10-08T07:26:11.648Z,9.20
2022-10-08T07:29:13.794Z,8.10
2022-10-08T07:32:15.065Z,7.18
2022-10-08T07:35:16.420Z,8.70
2022-10-08T07:38:18.542Z,8.30
2022-10-08T07:41:19.862Z,7.30
2022-10-08T07:44:21.167Z,9.48
2022-10-08T07:47:22.482Z,9.18
2022-10-08T07:50:23.956Z,7.22
2022-10-08T07:53:25.239Z,6.93
2022-10-08T07:56:26.640Z,6.38
2022-10-08T07:59:28.281Z,6.47
2022-10-08T08:02:29.551Z,3.25
2022-10-08T08:05:33.333Z,4.75
2022-10-08T08:08:35.295Z,6.03
2022-10-08T08:11:36.570Z,4.30
2022-10-08T08:14:37.793Z,5.85
2022-10-08T08:17:39.163Z,4.68
2022-10-08T08:20:41.152Z,3.35
2022-10-08T08:23:44.077Z,5.10
2022-10-08T08:26:45.374Z,3.28
2022-10-08T08:29:46.640Z,4.03
2022-10-08T08:32:48.165Z,5.13
2022-10-08T08:35:52.931Z,3.72
2022-10-08T08:38:54.387Z,4.15
2022-10-08T08:42:07.812Z,5.18
2022-10-08T08:45:28.360Z,4.40
2022-10-08T08:48:37.682Z,2.92
2022-10-08T08:51:38.966Z,5.15
2022-10-08T08:54:40.299Z,3.72
2022-10-08T08:57:45.658Z,2.55
2022-10-08T09:00:51.796Z,5.82
2022-10-08T09:03:54.771Z,2.97
2022-10-08T09:06:58.221Z,4.32
2022-10-08T09:10:01.607Z,3.45
2022-10-08T09:13:03.029Z,2.40
2022-10-08T09:16:04.393Z,7.45
2022-10-08T09:19:05.665Z,2.85
2022-10-08T09:22:23.922Z,4.88
2022-10-08T09:25:26.318Z,3.30
2022-10-08T09:28:57.131Z,1.88
2022-10-08T09:31:58.412Z,4.78
2022-10-08T09:35:06.519Z,4.65
2022-10-08T09:38:15.411Z,2.63
2022-10-08T09:41:16.630Z,2.60
2022-10-08T09:44:19.782Z,3.42
2022-10-08T09:47:22.499Z,2.10
2022-10-08T09:50:23.776Z,4.05
2022-10-08T09:53:27.041Z,2.67
2022-10-08T09:56:29.342Z,2.50
2022-10-08T09:59:33.146Z,4.38
2022-10-08T10:02:38.136Z,3.47
2022-10-08T10:05:39.743Z,4.82
2022-10-08T10:08:48.393Z,2.50
2022-10-08T10:11:55.202Z,3.00
2022-10-08T10:14:59.370Z,2.17
2022-10-08T10:18:20.969Z,3.20
2022-10-08T10:21:40.722Z,1.88
2022-10-08T10:25:05.024Z,4.10
2022-10-08T10:28:08.889Z,4.07
2022-10-08T10:31:13.021Z,2.03
2022-10-08T10:34:14.298Z,1.60
2022-10-08T10:37:18.879Z,2.83
2022-10-08T10:40:36.900Z,3.25
2022-10-08T10:43:48.123Z,4.40
2022-10-08T10:46:51.654Z,4.10
2022-10-08T10:49:52.951Z,2.42
2022-10-08T10:53:13.024Z,2.15
2022-10-08T10:56:15.949Z,3.53
2022-10-08T10:59:37.472Z,1.80
2022-10-08T11:02:57.287Z,2.42
2022-10-08T11:06:05.928Z,2.50
2022-10-08T11:09:07.134Z,3.53
2022-10-08T11:12:08.361Z,2.95
2022-10-08T11:15:28.510Z,2.72
2022-10-08T11:18:35.855Z,2.45
2022-10-08T11:21:40.098Z,2.80
2022-10-08T11:24:52.390Z,2.30
2022-10-08T11:27:53.589Z,2.97
2022-10-08T11:30:57.655Z,2.90
2022-10-08T11:33:59.572Z,3.40
2022-10-08T11:37:03.900Z,2.22
2022-10-08T11:40:28.486Z,2.53
2022-10-08T11:43:36.556Z,6.13
2022-10-08T11:46:37.889Z,2.45
2022-10-08T11:49:39.135Z,2.10
2022-10-08T11:52:40.397Z,5.80
2022-10-08T11:55:55.428Z,2.20
2022-10-08T11:58:57.903Z,2.90
2022-10-08T12:02:04.998Z,4.03
2022-10-08T12:05:21.338Z,3.65
2022-10-08T12:08:58.114Z,1.45
2022-10-08T12:15:00.523Z,2.33
2022-10-08T12:18:01.744Z,2.17
2022-10-08T12:21:20.434Z,4.53
2022-10-08T12:24:49.981Z,1.75
2022-10-08T12:30:56.869Z,3.03
2022-10-08T12:34:00.179Z,1.90
2022-10-08T12:37:05.003Z,4.13
2022-10-08T12:40:14.540Z,3.78
2022-10-08T12:43:18.898Z,2.88
2022-10-08T12:46:39.230Z,2.58
2022-10-08T12:49:43.939Z,2.70
2022-10-08T12:52:45.479Z,3.38
2022-10-08T12:55:54.681Z,3.95
2022-10-08T12:58:58.546Z,1.70
2022-10-08T13:01:59.864Z,1.88
2022-10-08T13:05:01.205Z,2.97
2022-10-08T13:08:18.832Z,2.40
2022-10-08T13:11:20.157Z,3.15
2022-10-08T13:14:24.471Z,3.35
2022-10-08T13:17:33.242Z,3.15
2022-10-08T13:20:34.500Z,1.98
2022-10-08T13:23:36.774Z,2.90
2022-10-08T13:26:42.555Z,3.10
2022-10-08T13:29:43.826Z,2.67
2022-10-08T13:32:45.417Z,3.13
2022-10-08T13:35:54.044Z,2.95
2022-10-08T13:38:55.308Z,2.28
2022-10-08T13:42:00.924Z,2.53
2022-10-08T13:45:04.086Z,2.20
2022-10-08T13:48:09.391Z,3.67
2022-10-08T13:51:10.956Z,2.72
2022-10-08T13:54:12.413Z,3.50
2022-10-08T13:57:14.088Z,2.45
2022-10-08T14:00:15.644Z,2.33
2022-10-08T14:03:16.945Z,4.03
2022-10-08T14:06:18.191Z,2.25
2022-10-08T14:09:21.501Z,2.35
2022-10-08T14:12:26.287Z,1.98
2022-10-08T14:15:27.634Z,2.35
2022-10-08T14:18:28.971Z,2.53
2022-10-08T14:21:30.207Z,3.45
2022-10-08T14:24:31.453Z,2.45
2022-10-08T14:27:32.745Z,2.88
2022-10-08T14:30:34.053Z,2.40
2022-10-08T14:33:35.329Z,2.15
2022-10-08T14:36:37.508Z,3.38
2022-10-08T14:39:38.872Z,2.15
2022-10-08T14:42:40.090Z,2.15
2022-10-08T14:45:41.399Z,2.63
2022-10-08T14:48:42.671Z,2.10
2022-10-08T14:51:43.923Z,3.33
2022-10-08T14:54:45.244Z,2.47
2022-10-08T14:57:46.475Z,2.17
2022-10-08T15:00:51.957Z,2.25
2022-10-08T15:03:53.373Z,1.90
2022-10-08T15:06:54.692Z,3.35
2022-10-08T15:09:55.927Z,3.13
2022-10-08T15:12:57.194Z,2.50
2022-10-08T15:15:58.842Z,2.05
2022-10-08T15:19:00.197Z,3.10
2022-10-08T15:22:01.465Z,2.95
2022-10-08T15:25:02.842Z,1.65
2022-10-08T15:28:04.680Z,2.28
2022-10-08T15:31:08.002Z,2.55
2022-10-08T15:34:15.185Z,2.33
2022-10-08T15:37:16.442Z,3.38
2022-10-08T15:40:17.933Z,1.70
2022-10-08T15:43:19.215Z,2.45
2022-10-08T15:46:21.130Z,3.42
2022-10-08T15:49:22.482Z,2.80
2022-10-08T15:52:23.767Z,2.42
2022-10-08T15:55:25.334Z,2.22
2022-10-08T15:58:46.110Z,4.35
2022-10-08T16:01:47.908Z,2.13
2022-10-08T16:04:49.205Z,4.50
2022-10-08T16:07:50.459Z,4.63
2022-10-08T16:10:56.135Z,4.10
2022-10-08T16:14:00.622Z,3.95
2022-10-08T16:17:02.794Z,3.47
2022-10-08T16:20:04.350Z,3.63
2022-10-08T16:23:05.585Z,6.25
2022-10-08T16:26:07.711Z,3.00
2022-10-08T16:29:10.787Z,2.63
2022-10-08T16:32:12.837Z,3.13
2022-10-08T16:35:14.084Z,3.67
2022-10-08T16:38:15.330Z,3.65
2022-10-08T16:41:17.758Z,4.78
2022-10-08T16:44:19.758Z,7.35
2022-10-08T16:47:21.545Z,5.20
2022-10-08T16:50:22.774Z,4.90
2022-10-08T16:53:24.014Z,2.97
2022-10-08T16:56:26.445Z,4.22
2022-10-08T16:59:28.963Z,3.83
2022-10-08T17:02:30.289Z,3.30
2022-10-08T17:05:31.562Z,4.15
2022-10-08T17:08:32.862Z,4.10
2022-10-08T17:11:34.552Z,2.78
2022-10-08T17:14:37.736Z,7.47
2022-10-08T17:17:39.030Z,4.82
2022-10-08T17:20:41.423Z,4.32
2022-10-08T17:23:42.668Z,5.03
2022-10-08T17:26:43.960Z,6.43
2022-10-08T17:29:45.491Z,7.25
2022-10-08T17:32:46.900Z,5.35
2022-10-08T17:35:48.376Z,7.32
2022-10-08T17:38:53.737Z,5.28
2022-10-08T17:41:55.680Z,6.75
2022-10-08T17:44:56.922Z,9.77
2022-10-08T17:47:58.202Z,5.13
2022-10-08T17:51:03.339Z,5.65
2022-10-08T17:54:07.314Z,7.55
2022-10-08T17:57:08.579Z,5.88
2022-10-08T18:00:10.362Z,7.63
2022-10-08T18:03:11.742Z,8.48
2022-10-08T18:06:13.139Z,7.47
2022-10-08T18:09:19.685Z,6.18
2022-10-08T18:12:20.910Z,6.85
2022-10-08T18:15:23.215Z,10.98
2022-10-08T18:18:24.466Z,7.20
2022-10-08T18:21:26.004Z,7.10
2022-10-08T18:24:27.573Z,5.03
2022-10-08T18:27:29.160Z,8.90
2022-10-08T18:30:30.424Z,8.40
2022-10-08T18:33:32.465Z,7.85
2022-10-08T18:36:34.949Z,7.28
2022-10-08T18:39:36.288Z,6.85
2022-10-08T18:42:37.551Z,10.23
2022-10-08T18:45:39.207Z,10.88
2022-10-08T18:48:40.987Z,12.77
2022-10-08T18:51:42.446Z,12.95
2022-10-08T18:54:43.719Z,8.65
2022-10-08T18:57:44.985Z,12.38
2022-10-08T19:00:46.390Z,10.23
2022-10-08T19:03:48.469Z,8.52
2022-10-08T19:06:51.036Z,7.43
2022-10-08T19:09:52.293Z,6.57
2022-10-08T19:12:53.562Z,5.95
2022-10-08T19:15:54.857Z,6.07
2022-10-08T19:19:02.357Z,10.68
2022-10-08T19:22:03.626Z,7.97
2022-10-08T19:25:05.049Z,10.23
2022-10-08T19:28:06.336Z,10.73
2022-10-08T19:31:11.643Z,9.88
2022-10-08T19:34:14.364Z,13.50
2022-10-08T19:37:15.633Z,10.05
2022-10-08T19:40:16.970Z,8.05
2022-10-08T19:43:18.266Z,6.28
2022-10-08T19:46:19.896Z,7.05
2022-10-08T19:49:21.283Z,9.52
2022-10-08T19:52:22.603Z,7.82
2022-10-08T19:55:23.877Z,8.60
2022-10-08T19:58:25.317Z,10.93
2022-10-08T20:01:28.883Z,10.02
2022-10-08T20:04:30.174Z,11.63
2022-10-08T20:07:31.418Z,12.13
2022-10-08T20:10:33.113Z,12.88
2022-10-08T20:13:34.749Z,10.50
2022-10-08T20:16:37.652Z,9.27
2022-10-08T20:19:38.957Z,8.60
2022-10-08T20:22:40.200Z,12.30
2022-10-08T20:25:42.438Z,14.20
2022-10-08T20:28:44.445Z,14.50
2022-10-08T20:31:49.150Z,17.20
2022-10-08T20:37:51.683Z,10.32
2022-10-08T20:40:54.772Z,10.70
2022-10-08T20:44:00.194Z,14.05
2022-10-08T20:47:01.812Z,11.30
2022-10-08T20:50:03.207Z,11.65
2022-10-08T20:53:04.532Z,11.68
2022-10-08T20:56:06.827Z,10.55
2022-10-08T20:59:09.040Z,9.38
2022-10-08T21:02:11.259Z,9.35
2022-10-08T21:05:13.051Z,11.73
2022-10-08T21:08:14.295Z,11.57
2022-10-08T21:11:16.896Z,10.00
2022-10-08T21:14:19.489Z,10.48
2022-10-08T21:17:20.724Z,9.13
2022-10-08T21:20:22.233Z,8.60
2022-10-08T21:23:23.511Z,8.98
2022-10-08T21:26:26.199Z,10.25
2022-10-08T21:29:27.530Z,7.93
2022-10-08T21:32:28.832Z,11.13
2022-10-08T21:35:30.095Z,9.10
2022-10-08T21:38:31.471Z,9.38
2022-10-08T21:41:34.231Z,9.73
2022-10-08T21:44:35.481Z,7.10
2022-10-08T21:47:36.721Z,8.02
2022-10-08T21:50:37.943Z,8.05
2022-10-08T21:53:40.376Z,6.32
2022-10-08T21:56:41.936Z,6.95
2022-10-08T21:59:43.281Z,4.75
2022-10-08T22:02:44.597Z,7.25
2022-10-08T22:06:04.554Z,5.68
2022-10-08T22:09:06.863Z,5.88
2022-10-08T22:12:08.139Z,7.50
2022-10-08T22:15:09.622Z,9.65
2022-10-08T22:18:10.865Z,6.15
2022-10-08T22:21:14.022Z,4.65
2022-10-08T22:24:15.493Z,5.22
2022-10-08T22:27:16.767Z,4.10
2022-10-08T22:30:18.011Z,4.55
2022-10-08T22:33:19.705Z,6.85
2022-10-08T22:36:28.183Z,3.90
2022-10-08T22:39:29.474Z,3.45
2022-10-08T22:42:30.721Z,5.55
2022-10-08T22:45:35.743Z,5.32
2022-10-08T22:48:37.812Z,4.63
2022-10-08T22:51:39.495Z,3.72
2022-10-08T22:54:40.780Z,3.95
2022-10-08T22:57:42.012Z,4.90
2022-10-08T23:00:43.297Z,8.80
2022-10-08T23:03:44.700Z,7.88
2022-10-08T23:06:45.979Z,5.28
2022-10-08T23:09:47.240Z,5.22
2022-10-08T23:12:48.686Z,4.28
2022-10-08T23:15:50.145Z,8.25
2022-10-08T23:18:52.810Z,5.45
2022-10-08T23:21:54.044Z,4.72
2022-10-08T23:24:55.289Z,8.73
2022-10-08T23:27:56.532Z,15.60
2022-10-08T23:31:04.790Z,5.38
2022-10-08T23:34:06.839Z,5.32
2022-10-08T23:37:08.134Z,5.57
2022-10-08T23:40:09.475Z,5.05
2022-10-08T23:43:10.746Z,3.15
2022-10-08T23:46:13.584Z,3.72
2022-10-08T23:49:14.917Z,5.13
2022-10-08T23:52:16.176Z,4.43
2022-10-08T23:55:17.443Z,4.18
2022-10-08T23:58:18.767Z,4.40
